Time;durP1;ratioP1;P1;durP2;ratioP2;P2;SDS_P1;SDS_P2;PMS_P1;PMS_P2;Temp;Humidity;BMP_temperature;BMP_pressure;BME280_temperature;BME280_humidity;BME280_pressure;Samples;Min_cycle;Max_cycle;Signal;HPM_P1;HPM_P2
2023/06/13 00:01:20;;;;;;;;;6.60;6.60;;;;;19.13;89.36;98572.91;5097772;27;45459;-64
2023/06/13 00:03:47;;;;;;;;;6.50;6.50;;;;;19.13;89.50;98562.22;5098043;27;45488;-64
2023/06/13 00:06:15;;;;;;;;;3.60;3.60;;;;;19.11;89.12;98566.00;5097260;27;45447;-64
2023/06/13 00:08:42;;;;;;;;;7.00;6.80;;;;;19.09;89.91;98567.97;5097663;27;45448;-64
2023/06/13 00:11:07;;;;;;;;;7.20;7.00;;;;;19.07;89.75;98570.78;5097370;27;45384;-64
2023/06/13 00:13:33;;;;;;;;;7.00;7.00;;;;;19.08;90.71;98561.78;5097511;27;45657;-64
2023/06/13 00:16:00;;;;;;;;;8.25;7.75;;;;;19.07;90.81;98568.09;5097254;27;45478;-64
2023/06/13 00:18:31;;;;;;;;;8.80;7.00;;;;;19.09;90.29;98565.31;5097449;27;45495;-64
2023/06/13 00:20:58;;;;;;;;;8.80;7.00;;;;;19.09;90.49;98568.81;5096979;27;45359;-64
2023/06/13 00:23:25;;;;;;;;;6.00;5.80;;;;;19.09;90.21;98563.47;5097368;27;45473;-64
2023/06/13 00:25:51;;;;;;;;;7.40;7.20;;;;;19.09;90.41;98551.94;5096992;27;45443;-64
2023/06/13 00:28:17;;;;;;;;;7.80;7.40;;;;;19.11;90.44;98552.63;5096500;27;46715;-65
2023/06/13 00:30:43;;;;;;;;;9.00;7.00;;;;;19.10;90.67;98559.81;5096452;27;45448;-64
2023/06/13 00:33:11;;;;;;;;;5.00;5.00;;;;;19.09;90.64;98558.13;5097111;27;45321;-64
2023/06/13 00:35:37;;;;;;;;;6.75;6.50;;;;;19.10;90.47;98561.66;5096044;27;45320;-64
2023/06/13 00:38:02;;;;;;;;;7.25;6.00;;;;;19.11;90.59;98561.50;5096496;27;45519;-64
2023/06/13 00:40:28;;;;;;;;;6.75;5.50;;;;;19.12;90.69;98565.03;5096266;27;45432;-64
2023/06/13 00:42:55;;;;;;;;;9.00;7.75;;;;;19.14;90.31;98573.75;5096975;27;45392;-64
2023/06/13 00:45:32;;;;;;;;;5.75;5.75;;;;;19.13;89.96;98572.91;5096199;27;45496;-64
2023/06/13 00:48:06;;;;;;;;;6.80;5.60;;;;;19.14;89.81;98573.75;5096355;27;45474;-64
2023/06/13 00:50:40;;;;;;;;;8.20;7.20;;;;;19.13;89.82;98578.25;5096129;27;45419;-64
2023/06/13 00:53:11;;;;;;;;;7.40;6.60;;;;;19.13;89.90;98577.41;5097239;27;45549;-64
2023/06/13 00:55:37;;;;;;;;;6.00;6.00;;;;;19.11;89.09;98572.19;5096910;27;45376;-64
2023/06/13 00:58:06;;;;;;;;;5.20;5.20;;;;;19.08;88.91;98588.50;5096775;27;46525;-64
2023/06/13 01:00:36;;;;;;;;;6.40;6.00;;;;;19.08;89.79;98579.63;5096731;27;45416;-64
2023/06/13 01:03:07;;;;;;;;;5.80;5.80;;;;;19.09;89.75;98584.00;5097019;27;45251;-64
2023/06/13 01:05:36;;;;;;;;;6.60;6.60;;;;;19.09;89.80;98581.34;5096312;27;45516;-64
2023/06/13 01:08:09;;;;;;;;;6.20;6.20;;;;;19.09;90.06;98576.84;5096454;27;46364;-64
2023/06/13 01:10:36;;;;;;;;;7.40;7.00;;;;;19.08;90.33;98575.16;5096747;27;45365;-64
2023/06/13 01:13:09;;;;;;;;;6.00;6.00;;;;;19.09;89.75;98578.66;5096462;27;45404;-64
2023/06/13 01:15:41;;;;;;;;;7.40;6.00;;;;;19.10;89.64;98575.84;5096609;27;45360;-64
2023/06/13 01:18:10;;;;;;;;;6.60;6.20;;;;;19.12;89.69;98575.72;5096644;27;45453;-64
2023/06/13 01:20:37;;;;;;;;;7.20;6.60;;;;;19.14;89.79;98576.44;5095921;27;45368;-64
2023/06/13 01:23:30;;;;;;;;;8.20;5.40;;;;;19.14;89.56;98577.28;5096491;27;45356;-64
2023/06/13 01:26:04;;;;;;;;;8.50;7.50;;;;;19.13;89.24;98580.06;5090482;27;45518;-64
2023/06/13 01:28:35;;;;;;;;;6.60;6.60;;;;;19.14;89.70;98587.13;5074631;28;48143;-64
2023/06/13 01:31:08;;;;;;;;;7.40;6.40;;;;;19.13;89.90;98588.09;5065005;27;45382;-64
2023/06/13 01:33:35;;;;;;;;;6.00;6.00;;;;;19.14;89.98;98587.97;5096442;27;45463;-64
2023/06/13 01:36:01;;;;;;;;;5.40;5.40;;;;;19.16;89.74;98588.69;5096237;27;45432;-64
2023/06/13 01:38:26;;;;;;;;;6.40;5.80;;;;;19.18;89.45;98578.72;5095901;27;45468;-65
2023/06/13 01:40:52;;;;;;;;;5.50;5.50;;;;;19.19;89.51;98584.91;5095877;27;45448;-65
2023/06/13 01:43:17;;;;;;;;;5.50;5.50;;;;;19.18;89.41;98584.06;5096168;27;45462;-64
2023/06/13 01:45:43;;;;;;;;;5.00;5.00;;;;;19.18;89.19;98584.06;5096069;27;45445;-65
2023/06/13 01:48:22;;;;;;;;;5.50;3.75;;;;;19.21;88.63;98592.81;5095513;27;45456;-66
2023/06/13 01:50:56;;;;;;;;;5.40;5.00;;;;;19.22;88.24;98583.81;5095317;27;45400;-65
2023/06/13 01:53:36;;;;;;;;;4.20;4.20;;;;;19.23;88.53;98591.72;5095402;27;45397;-65
2023/06/13 01:56:06;;;;;;;;;5.60;4.80;;;;;19.25;88.61;98587.09;5096000;27;45476;-65
2023/06/13 01:58:39;;;;;;;;;4.00;4.00;;;;;19.26;88.04;98583.44;5082372;27;46690;-65
2023/06/13 02:01:06;;;;;;;;;4.00;4.00;;;;;19.28;88.15;98586.81;5095723;27;45373;-65
2023/06/13 02:03:33;;;;;;;;;4.40;4.40;;;;;19.28;88.38;98584.13;5095799;27;45370;-65
2023/06/13 02:05:58;;;;;;;;;4.60;4.00;;;;;19.28;88.04;98586.81;5095120;27;45475;-65
2023/06/13 02:08:24;;;;;;;;;7.00;6.00;;;;;19.28;87.85;98583.28;5095649;27;45290;-66
2023/06/13 02:10:50;;;;;;;;;5.00;4.00;;;;;19.29;88.15;98584.97;5077287;27;45331;-65
2023/06/13 02:13:15;;;;;;;;;5.25;5.25;;;;;19.29;87.96;98587.66;5096085;27;45568;-66
2023/06/13 02:15:40;;;;;;;;;4.00;4.00;;;;;19.29;88.15;98582.31;5095711;27;45424;-66
2023/06/13 02:18:07;;;;;;;;;4.00;4.00;;;;;19.32;87.51;98580.22;5095165;27;46134;-66
2023/06/13 02:20:33;;;;;;;;;5.60;5.20;;;;;19.31;87.24;98580.34;5095271;27;45439;-66
2023/06/13 02:23:02;;;;;;;;;5.00;5.00;;;;;19.31;87.46;98578.53;5095684;27;45437;-66
2023/06/13 02:25:27;;;;;;;;;4.40;4.00;;;;;19.30;87.96;98579.50;5095635;27;45529;-66
2023/06/13 02:27:53;;;;;;;;;5.25;4.50;;;;;19.31;87.67;98583.03;5095294;27;46577;-66
2023/06/13 02:30:18;;;;;;;;;5.75;4.25;;;;;19.33;88.23;98581.94;5111017;27;45932;-66
2023/06/13 02:32:46;;;;;;;;;5.00;4.25;;;;;19.34;87.71;98572.94;5095150;27;45387;-66
2023/06/13 02:35:12;;;;;;;;;5.20;4.00;;;;;19.34;88.44;98572.09;5076946;27;45345;-66
2023/06/13 02:37:38;;;;;;;;;4.20;3.60;;;;;19.33;88.25;98565.03;5094869;27;46591;-66
2023/06/13 02:40:10;;;;;;;;;5.75;4.50;;;;;19.34;87.73;98564.06;5094998;27;45471;-66
2023/06/13 02:42:36;;;;;;;;;6.20;5.40;;;;;19.35;87.91;98565.75;5095230;27;45432;-66
2023/06/13 02:45:03;;;;;;;;;6.60;4.00;;;;;19.35;87.90;98571.13;5094978;27;45534;-66
2023/06/13 02:47:28;;;;;;;;;4.00;4.00;;;;;19.35;87.55;98569.28;5094866;27;45731;-66
2023/06/13 02:49:54;;;;;;;;;5.75;5.25;;;;;19.34;87.33;98572.09;5094676;27;45508;-66
2023/06/13 02:52:21;;;;;;;;;3.50;3.50;;;;;19.33;86.97;98578.41;5094796;27;45417;-66
2023/06/13 02:54:47;;;;;;;;;4.80;4.80;;;;;19.32;86.94;98574.88;5094915;27;45484;-66
2023/06/13 02:57:13;;;;;;;;;4.00;4.00;;;;;19.33;87.22;98581.09;5094953;27;45765;-65
2023/06/13 02:59:38;;;;;;;;;4.00;3.50;;;;;19.34;87.06;98583.63;5094933;27;45376;-66
2023/06/13 03:02:04;;;;;;;;;5.75;5.00;;;;;19.33;87.31;98583.75;5095269;27;45397;-66
2023/06/13 03:04:31;;;;;;;;;5.25;5.00;;;;;19.32;87.39;98587.41;5094886;27;45403;-66
2023/06/13 03:06:57;;;;;;;;;5.00;4.60;;;;;19.32;87.48;98582.91;5094721;27;46271;-66
2023/06/13 03:09:22;;;;;;;;;8.00;5.00;;;;;19.34;87.30;98582.78;5076713;27;45449;-66
2023/06/13 03:11:48;;;;;;;;;3.00;3.00;;;;;19.34;87.59;98580.94;5095210;27;45496;-66
2023/06/13 03:14:13;;;;;;;;;4.00;3.25;;;;;19.34;87.73;98574.75;5094769;27;45391;-66
2023/06/13 03:16:39;;;;;;;;;5.50;4.50;;;;;19.33;87.61;98571.25;5094480;27;46192;-66
2023/06/13 03:19:04;;;;;;;;;5.50;3.75;;;;;19.33;87.63;98567.72;5094645;27;45384;-66
2023/06/13 03:21:30;;;;;;;;;5.00;3.75;;;;;19.33;87.56;98573.06;5094419;27;45530;-66
2023/06/13 03:23:56;;;;;;;;;5.00;4.00;;;;;19.32;87.80;98569.53;5094362;27;45409;-66
2023/06/13 03:26:22;;;;;;;;;4.20;4.20;;;;;19.31;87.83;98569.66;5094539;27;45611;-66
2023/06/13 03:28:48;;;;;;;;;5.20;3.80;;;;;19.30;87.98;98571.50;5094068;27;45357;-66
2023/06/13 03:31:14;;;;;;;;;3.00;3.00;;;;;19.30;87.71;98570.63;5096427;27;45353;-65
2023/06/13 03:33:40;;;;;;;;;3.20;3.20;;;;;19.28;87.89;98565.41;5098321;27;45435;-65
2023/06/13 03:36:06;;;;;;;;;3.00;3.00;;;;;19.29;87.73;98563.59;5097739;27;46233;-66
2023/06/13 03:38:31;;;;;;;;;4.00;4.00;;;;;19.28;87.91;98565.41;5098002;27;45413;-66
2023/06/13 03:40:56;;;;;;;;;3.00;3.00;;;;;19.26;87.44;98562.06;5097553;27;45503;-65
2023/06/13 03:43:22;;;;;;;;;5.00;3.25;;;;;19.26;87.41;98564.72;5097146;27;45417;-66
2023/06/13 03:45:48;;;;;;;;;3.00;3.00;;;;;19.25;88.51;98562.19;5097918;27;46010;-66
2023/06/13 03:48:14;;;;;;;;;5.50;4.50;;;;;19.24;88.87;98558.66;5097561;27;45441;-65
2023/06/13 03:50:39;;;;;;;;;4.75;4.75;;;;;19.25;88.58;98562.19;5097268;27;45506;-65
2023/06/13 03:53:05;;;;;;;;;5.50;5.50;;;;;19.24;88.50;98555.16;5097256;27;45554;-65
2023/06/13 03:55:31;;;;;;;;;5.25;5.25;;;;;19.22;88.82;98563.28;5112460;27;48058;-65
2023/06/13 03:57:57;;;;;;;;;3.40;3.20;;;;;19.23;88.77;98556.97;5097534;27;45483;-65
2023/06/13 04:00:23;;;;;;;;;4.75;4.75;;;;;19.23;88.83;98554.28;5097799;27;45596;-65
2023/06/13 04:02:48;;;;;;;;;4.00;4.00;;;;;19.25;88.12;98555.03;5086766;27;45369;-65
2023/06/13 04:05:14;;;;;;;;;5.75;3.00;;;;;19.26;87.73;98550.53;5097225;27;45929;-65
2023/06/13 04:07:40;;;;;;;;;4.00;4.00;;;;;19.27;87.03;98552.22;5096673;27;45453;-65
2023/06/13 04:10:06;;;;;;;;;4.00;4.00;;;;;19.29;87.62;98553.75;5097095;27;45415;-65
2023/06/13 04:12:31;;;;;;;;;6.00;6.00;;;;;19.32;87.91;98552.66;5077642;27;45680;-65
2023/06/13 04:14:57;;;;;;;;;5.25;5.25;;;;;19.35;87.14;98550.56;5096540;27;45581;-65
2023/06/13 04:17:23;;;;;;;;;5.50;4.00;;;;;19.37;87.04;98553.97;5096609;27;45464;-66
2023/06/13 04:19:48;;;;;;;;;4.50;4.00;;;;;19.40;86.95;98552.88;5096522;27;45434;-65
2023/06/13 04:22:16;;;;;;;;;5.50;5.00;;;;;19.43;86.85;98547.25;5095274;27;45574;-65
2023/06/13 04:24:42;;;;;;;;;4.00;4.00;;;;;19.42;87.40;98551.75;5096485;27;45399;-65
2023/06/13 04:27:08;;;;;;;;;4.60;4.00;;;;;19.43;87.85;98552.59;5095887;27;45445;-65
2023/06/13 04:29:34;;;;;;;;;5.25;5.00;;;;;19.40;87.43;98552.88;5077881;27;45375;-65
2023/06/13 04:32:03;;;;;;;;;7.00;6.00;;;;;19.40;87.29;98560.88;5096183;27;45390;-65
2023/06/13 04:34:29;;;;;;;;;5.00;4.00;;;;;19.36;87.50;98556.78;5096837;27;45582;-65
2023/06/13 04:36:57;;;;;;;;;5.20;4.60;;;;;19.37;87.00;98561.13;5096267;27;45449;-65
2023/06/13 04:39:26;;;;;;;;;6.80;5.60;;;;;19.37;87.46;98563.81;5097092;27;45539;-65
2023/06/13 04:41:55;;;;;;;;;6.80;6.80;;;;;19.38;87.39;98563.69;5095919;27;45432;-65
2023/06/13 04:44:28;;;;;;;;;7.00;7.00;;;;;19.37;86.97;98566.50;5096210;27;47374;-65
2023/06/13 04:46:57;;;;;;;;;7.80;7.00;;;;;19.38;87.50;98569.03;5096657;27;45427;-64
2023/06/13 04:49:23;;;;;;;;;10.60;9.00;;;;;19.40;87.53;98563.56;5095827;27;45317;-65
2023/06/13 04:51:49;;;;;;;;;8.60;7.60;;;;;19.40;86.72;98561.72;5095727;27;45457;-65
2023/06/13 04:54:15;;;;;;;;;8.00;7.50;;;;;19.37;86.63;98564.66;5096128;27;46608;-65
2023/06/13 04:56:41;;;;;;;;;9.80;7.80;;;;;19.36;86.99;98564.78;5096289;27;45504;-65
2023/06/13 04:59:07;;;;;;;;;8.00;8.00;;;;;19.36;86.93;98559.44;5096238;27;45431;-65
2023/06/13 05:01:32;;;;;;;;;11.50;9.00;;;;;19.36;87.07;98564.78;5096008;27;45423;-65
2023/06/13 05:03:58;;;;;;;;;9.25;8.50;;;;;19.38;87.47;98565.50;5095501;27;46075;-65
2023/06/13 05:06:24;;;;;;;;;7.50;7.50;;;;;19.41;87.57;98565.25;5095512;27;45460;-65
2023/06/13 05:08:52;;;;;;;;;10.50;10.25;;;;;19.42;87.83;98565.13;5077721;27;45487;-65
2023/06/13 05:11:17;;;;;;;;;9.00;8.60;;;;;19.45;87.58;98562.16;5095777;27;45474;-65
2023/06/13 05:13:43;;;;;;;;;7.00;5.00;;;;;19.45;87.78;98566.66;5095873;27;45375;-65
2023/06/13 05:16:09;;;;;;;;;9.00;8.00;;;;;19.47;87.32;98564.72;5095445;27;45393;-65
2023/06/13 05:18:34;;;;;;;;;7.80;6.20;;;;;19.47;87.35;98570.91;5095231;27;45358;-65
2023/06/13 05:21:00;;;;;;;;;8.00;7.00;;;;;19.48;87.68;98564.59;5095135;27;45416;-65
2023/06/13 05:23:26;;;;;;;;;6.25;6.25;;;;;19.50;87.45;98569.84;5095650;27;46250;-65
2023/06/13 05:25:51;;;;;;;;;7.25;7.00;;;;;19.53;87.76;98561.56;5095086;27;45430;-62
2023/06/13 05:28:18;;;;;;;;;7.00;7.00;;;;;19.58;87.64;98564.69;5095317;27;45437;-67
2023/06/13 05:30:45;;;;;;;;;8.80;7.00;;;;;19.64;87.63;98561.47;5094906;27;45460;-67
2023/06/13 05:33:11;;;;;;;;;6.00;5.40;;;;;19.69;87.01;98564.59;5094711;27;46291;-67
2023/06/13 05:35:36;;;;;;;;;7.40;6.00;;;;;19.74;87.02;98562.41;5094118;27;45334;-67
2023/06/13 05:38:02;;;;;;;;;6.75;4.50;;;;;19.77;87.06;98562.09;5076513;27;45485;-67
2023/06/13 05:40:27;;;;;;;;;8.00;7.00;;;;;19.82;86.92;98562.56;5094406;27;45467;-68
2023/06/13 05:42:53;;;;;;;;;7.00;6.25;;;;;19.89;86.09;98562.03;5094794;27;46063;-67
2023/06/13 05:45:18;;;;;;;;;7.00;5.75;;;;;19.94;86.34;98554.47;5076225;27;45412;-66
2023/06/13 05:47:44;;;;;;;;;6.00;6.00;;;;;19.97;85.53;98556.84;5094426;27;45500;-69
2023/06/13 05:50:11;;;;;;;;;6.25;6.25;;;;;19.98;85.85;98554.03;5095161;27;45294;-69
2023/06/13 05:52:38;;;;;;;;;7.20;7.20;;;;;20.03;85.75;98543.78;5093969;27;45401;-68
2023/06/13 05:55:04;;;;;;;;;9.75;8.75;;;;;20.08;85.48;98538.88;5072324;28;45535;-69
2023/06/13 05:57:40;;;;;;;;;6.40;6.40;;;;;20.14;85.33;98542.84;5087359;27;45382;-69
2023/06/13 06:00:08;;;;;;;;;8.00;8.00;;;;;20.20;84.97;98543.16;5109114;27;45507;-69
2023/06/13 06:02:34;;;;;;;;;6.00;6.00;;;;;20.27;84.71;98548.81;5092520;27;46368;-69
2023/06/13 06:05:00;;;;;;;;;7.00;6.00;;;;;20.33;84.30;98544.72;5094185;27;45664;-70
2023/06/13 06:07:26;;;;;;;;;5.75;5.75;;;;;20.39;84.35;98538.88;5094286;27;45606;-70
2023/06/13 06:09:51;;;;;;;;;8.50;6.00;;;;;20.44;84.07;98539.31;5094751;27;45664;-69
2023/06/13 06:12:17;;;;;;;;;8.75;7.75;;;;;20.46;84.04;98538.16;5075252;27;46441;-69
2023/06/13 06:14:42;;;;;;;;;7.25;7.00;;;;;20.53;83.48;98531.28;5094496;27;45346;-69
2023/06/13 06:17:07;;;;;;;;;9.75;9.00;;;;;20.61;83.55;98525.22;5094734;27;45488;-69
2023/06/13 06:19:33;;;;;;;;;8.75;8.75;;;;;20.69;82.99;98528.06;5094062;27;45377;-69
2023/06/13 06:21:58;;;;;;;;;7.00;7.00;;;;;20.76;83.28;98523.00;5094292;27;45618;-70
2023/06/13 06:24:23;;;;;;;;;7.00;7.00;;;;;20.84;82.64;98521.31;5093953;27;45408;-69
2023/06/13 06:26:49;;;;;;;;;4.50;3.75;;;;;20.89;82.56;98526.25;5094806;27;45437;-70
2023/06/13 06:29:14;;;;;;;;;8.00;7.25;;;;;20.96;81.82;98529.19;5094659;27;45404;-69
2023/06/13 06:31:40;;;;;;;;;8.00;7.00;;;;;21.02;81.68;98525.97;5094603;27;46213;-69
2023/06/13 06:34:05;;;;;;;;;7.75;7.00;;;;;21.09;81.41;98522.56;5094171;27;45321;-70
2023/06/13 06:36:30;;;;;;;;;5.75;5.75;;;;;21.18;80.85;98524.41;5094168;27;45350;-70
2023/06/13 06:38:56;;;;;;;;;4.00;3.25;;;;;21.26;79.98;98518.38;5094553;27;45394;-69
2023/06/13 06:41:21;;;;;;;;;6.00;6.00;;;;;21.32;79.55;98519.59;5094361;27;45507;-69
2023/06/13 06:43:47;;;;;;;;;6.75;6.25;;;;;21.41;79.84;98526.81;5094291;27;45301;-69
2023/06/13 06:46:12;;;;;;;;;6.25;6.25;;;;;21.52;78.93;98523.94;5075301;27;45400;-70
2023/06/13 06:48:38;;;;;;;;;5.50;4.00;;;;;21.62;78.45;98522.06;5093279;27;45683;-69
2023/06/13 06:51:04;;;;;;;;;6.00;6.00;;;;;21.70;78.19;98521.34;5092775;27;45566;-69
2023/06/13 06:53:29;;;;;;;;;5.00;5.00;;;;;21.79;78.45;98520.47;5093256;27;45388;-70
2023/06/13 06:55:55;;;;;;;;;5.00;5.00;;;;;21.89;76.89;98524.81;5093809;27;45350;-69
2023/06/13 06:58:21;;;;;;;;;4.00;4.00;;;;;21.99;76.86;98527.44;5092621;27;45474;-69
2023/06/13 07:00:46;;;;;;;;;7.50;7.50;;;;;22.06;76.71;98517.84;5093233;27;46701;-69
2023/06/13 07:03:12;;;;;;;;;5.50;5.00;;;;;22.15;76.38;98524.16;5093359;27;45442;-69
2023/06/13 07:05:38;;;;;;;;;6.60;6.00;;;;;22.20;76.07;98519.19;5095457;27;45388;-69
2023/06/13 07:08:03;;;;;;;;;8.00;6.00;;;;;22.23;75.82;98524.28;5097260;27;45537;-68
2023/06/13 07:10:29;;;;;;;;;6.00;6.00;;;;;22.24;75.61;98525.97;5078145;27;46564;-69
2023/06/13 07:12:56;;;;;;;;;6.00;5.00;;;;;22.30;75.61;98530.72;5096435;27;45411;-69
2023/06/13 07:15:22;;;;;;;;;10.00;8.80;;;;;22.39;75.19;98524.47;5096470;27;45436;-69
2023/06/13 07:17:47;;;;;;;;;8.40;8.40;;;;;22.47;74.79;98527.22;5095764;27;45502;-68
2023/06/13 07:20:13;;;;;;;;;9.25;9.00;;;;;22.53;74.50;98526.63;5095913;27;45274;-69
2023/06/13 07:22:38;;;;;;;;;8.00;8.00;;;;;22.59;73.90;98526.03;5096596;27;45337;-68
2023/06/13 07:25:04;;;;;;;;;6.50;5.25;;;;;22.68;73.92;98521.56;5097119;27;45934;-69
2023/06/13 07:27:30;;;;;;;;;8.80;7.00;;;;;22.75;73.43;98520.00;5096875;27;45644;-69
2023/06/13 07:29:55;;;;;;;;;6.25;5.25;;;;;22.83;73.03;98519.25;5096253;27;46603;-68
2023/06/13 07:32:21;;;;;;;;;8.00;6.00;;;;;22.90;72.14;98513.09;5095999;27;45545;-68
2023/06/13 07:34:46;;;;;;;;;6.00;6.00;;;;;22.96;71.88;98508.94;5096015;27;45778;-67
2023/06/13 07:37:11;;;;;;;;;9.50;8.25;;;;;23.03;71.62;98515.41;5096014;27;45496;-67
2023/06/13 07:39:37;;;;;;;;;6.00;6.00;;;;;23.07;71.64;98514.09;5096417;27;45380;-67
2023/06/13 07:42:02;;;;;;;;;6.50;6.00;;;;;23.09;70.81;98511.25;5096018;27;45474;-67
2023/06/13 07:44:28;;;;;;;;;5.25;5.00;;;;;23.09;70.73;98508.56;5096798;27;45422;-68
2023/06/13 07:46:53;;;;;;;;;3.75;3.75;;;;;23.07;69.75;98513.25;5096614;27;45377;-68
2023/06/13 07:49:18;;;;;;;;;4.50;4.50;;;;;23.06;70.12;98508.88;5096319;27;46086;-68
2023/06/13 07:51:44;;;;;;;;;9.00;7.25;;;;;23.07;70.41;98511.41;5095860;27;45439;-68
2023/06/13 07:54:09;;;;;;;;;9.00;8.75;;;;;23.08;70.18;98512.25;5096531;27;45444;-68
2023/06/13 07:56:34;;;;;;;;;6.50;5.25;;;;;23.06;69.61;98512.41;5096471;27;45431;-68
2023/06/13 07:59:00;;;;;;;;;5.75;5.50;;;;;23.04;69.96;98514.41;5112037;27;46144;-68
2023/06/13 08:01:26;;;;;;;;;7.25;6.00;;;;;22.99;69.58;98516.69;5095701;27;45343;-68
2023/06/13 08:03:51;;;;;;;;;7.00;7.00;;;;;22.94;70.10;98503.75;5096732;27;45697;-67
2023/06/13 08:06:16;;;;;;;;;7.00;6.75;;;;;22.90;70.01;98509.56;5096105;27;45378;-68
2023/06/13 08:08:42;;;;;;;;;7.75;6.00;;;;;22.86;69.99;98509.03;5077673;27;47245;-68
2023/06/13 08:11:07;;;;;;;;;4.00;4.00;;;;;22.83;69.80;98505.78;5095989;27;45454;-68
2023/06/13 08:13:33;;;;;;;;;6.50;5.00;;;;;22.79;69.84;98509.81;5096541;27;45472;-68
2023/06/13 08:15:58;;;;;;;;;2.00;2.00;;;;;22.74;70.48;98504.84;5095528;27;45377;-68
2023/06/13 08:18:24;;;;;;;;;5.25;5.25;;;;;22.72;70.31;98500.63;5076686;27;45598;-68
2023/06/13 08:20:49;;;;;;;;;7.25;4.25;;;;;22.72;70.38;98506.00;5077141;27;45356;-68
2023/06/13 08:23:17;;;;;;;;;5.75;5.75;;;;;22.70;70.01;98498.09;5096075;27;45341;-68
2023/06/13 08:25:42;;;;;;;;;6.00;4.40;;;;;22.69;69.88;98500.94;5094912;27;45526;-68
2023/06/13 08:28:08;;;;;;;;;4.50;4.00;;;;;22.68;69.60;98500.09;5095106;27;45483;-68
2023/06/13 08:30:33;;;;;;;;;6.50;5.25;;;;;22.69;69.50;98495.56;5095890;27;45447;-68
2023/06/13 08:33:01;;;;;;;;;5.50;5.50;;;;;22.69;69.74;98499.09;5095788;27;45488;-68
2023/06/13 08:35:27;;;;;;;;;7.40;7.40;;;;;22.68;69.76;98500.09;5095262;27;45483;-68
2023/06/13 08:37:52;;;;;;;;;5.75;5.75;;;;;22.65;69.91;98503.06;5095435;27;46339;-68
2023/06/13 08:40:19;;;;;;;;;8.00;6.75;;;;;22.63;69.82;98497.84;5095214;27;45438;-68
2023/06/13 08:42:46;;;;;;;;;4.80;4.80;;;;;22.61;70.11;98494.50;5095428;27;45472;-68
2023/06/13 08:45:11;;;;;;;;;5.40;5.00;;;;;22.67;69.60;98502.91;5095390;27;45625;-70
2023/06/13 08:47:39;;;;;;;;;5.25;5.25;;;;;22.69;70.13;98492.88;5095175;27;45572;-68
2023/06/13 08:50:07;;;;;;;;;6.20;4.00;;;;;22.73;70.41;98486.19;5094566;27;45457;-68
2023/06/13 08:52:41;;;;;;;;;5.20;5.20;;;;;22.81;70.46;98494.34;5095558;27;45391;-68
2023/06/13 08:55:11;;;;;;;;;5.00;5.00;;;;;22.91;70.05;98490.59;5095637;27;45397;-68
2023/06/13 08:57:39;;;;;;;;;4.20;4.20;;;;;23.02;69.60;98488.66;5095234;27;45430;-68
2023/06/13 09:00:09;;;;;;;;;6.00;4.60;;;;;23.18;69.85;98491.47;5094702;27;45373;-68
2023/06/13 09:02:35;;;;;;;;;8.20;4.80;;;;;23.31;69.87;98487.38;5094845;27;45360;-68
2023/06/13 09:05:00;;;;;;;;;5.00;5.00;;;;;23.49;68.99;98487.31;5094700;27;45409;-68
2023/06/13 09:07:27;;;;;;;;;4.00;4.00;;;;;23.66;68.90;98489.16;5094149;27;45466;-68
2023/06/13 09:09:54;;;;;;;;;4.00;4.00;;;;;23.85;68.18;98495.31;5094457;27;45403;-68
2023/06/13 09:12:20;;;;;;;;;4.40;4.00;;;;;24.01;67.47;98490.00;5094801;27;45406;-68
2023/06/13 09:14:46;;;;;;;;;3.80;3.20;;;;;24.16;67.14;98490.22;5094406;27;45418;-68
2023/06/13 09:17:11;;;;;;;;;4.80;4.80;;;;;24.24;67.00;98483.06;5095012;27;45548;-68
2023/06/13 09:19:37;;;;;;;;;5.75;5.75;;;;;24.33;66.62;98487.47;5094908;27;45416;-68
2023/06/13 09:22:03;;;;;;;;;5.75;5.00;;;;;24.45;66.44;98487.16;5095052;27;45394;-68
2023/06/13 09:24:30;;;;;;;;;5.25;5.25;;;;;24.53;65.98;98479.09;5094637;27;45403;-68
2023/06/13 09:26:57;;;;;;;;;7.00;5.80;;;;;24.59;65.66;98479.28;5094154;27;46196;-68
2023/06/13 09:29:33;;;;;;;;;6.20;6.20;;;;;24.75;65.21;98474.91;5093968;27;45470;-69
2023/06/13 09:31:59;;;;;;;;;11.00;9.20;;;;;24.84;65.24;98473.91;5094449;27;45393;-68
2023/06/13 09:34:29;;;;;;;;;4.20;4.20;;;;;24.92;64.47;98473.94;5094082;27;45637;-68
2023/06/13 09:36:56;;;;;;;;;6.80;6.80;;;;;25.01;64.58;98479.16;5093735;27;45612;-68
2023/06/13 09:39:22;;;;;;;;;5.20;4.60;;;;;25.09;64.09;98472.09;5094158;27;45486;-68
2023/06/13 09:41:53;;;;;;;;;4.40;2.80;;;;;25.20;64.00;98478.00;5094586;27;45523;-68
2023/06/13 09:44:20;;;;;;;;;3.40;3.40;;;;;25.27;63.49;98479.00;5094688;27;45370;-68
2023/06/13 09:46:49;;;;;;;;;5.00;4.00;;;;;25.31;63.18;98472.25;5094109;27;45680;-68
2023/06/13 09:49:16;;;;;;;;;2.80;2.80;;;;;25.39;62.74;98474.09;5094327;27;45456;-68
2023/06/13 09:51:42;;;;;;;;;3.40;3.40;;;;;25.47;62.35;98470.56;5093557;27;45362;-68
2023/06/13 09:54:08;;;;;;;;;3.00;3.00;;;;;25.44;61.84;98460.94;5095154;27;45420;-68
2023/06/13 09:56:33;;;;;;;;;4.00;4.00;;;;;25.39;62.25;98464.13;5093967;27;46571;-68
2023/06/13 09:58:58;;;;;;;;;5.00;5.00;;;;;25.37;61.89;98466.16;5093975;27;45326;-68
2023/06/13 10:01:24;;;;;;;;;5.00;4.00;;;;;25.44;62.16;98468.19;5094160;27;45389;-68
2023/06/13 10:03:49;;;;;;;;;6.75;6.00;;;;;25.46;62.15;98471.56;5093870;27;45572;-68
2023/06/13 10:06:15;;;;;;;;;7.00;6.00;;;;;25.46;62.30;98468.88;5093539;27;45894;-68
2023/06/13 10:08:40;;;;;;;;;4.25;4.25;;;;;25.48;62.21;98469.50;5094164;27;45326;-68
2023/06/13 10:11:13;;;;;;;;;4.00;4.00;;;;;25.53;61.87;98465.28;5094077;27;45622;-68
2023/06/13 10:13:49;;;;;;;;;5.60;5.60;;;;;25.58;61.88;98465.63;5093956;27;45542;-69
2023/06/13 10:16:15;;;;;;;;;5.40;5.00;;;;;25.61;61.39;98473.38;5093504;27;46560;-69
2023/06/13 10:18:45;;;;;;;;;3.80;3.80;;;;;25.70;61.82;98463.44;5094211;27;45551;-69
2023/06/13 10:21:13;;;;;;;;;3.80;2.40;;;;;25.78;61.14;98459.88;5093885;27;45404;-69
2023/06/13 10:23:44;;;;;;;;;6.00;5.00;;;;;25.81;61.00;98457.63;5093634;27;45384;-68
2023/06/13 10:26:16;;;;;;;;;4.80;4.80;;;;;25.81;60.73;98454.09;5093828;27;45900;-68
2023/06/13 10:28:45;;;;;;;;;4.00;4.00;;;;;25.79;60.13;98451.59;5093498;27;45463;-69
2023/06/13 10:31:26;;;;;;;;;5.00;5.00;;;;;25.84;60.11;98446.50;5093735;27;45416;-68
2023/06/13 10:34:15;;;;;;;;;4.20;4.20;;;;;25.88;59.59;98442.44;5092903;27;45516;-68
2023/06/13 10:37:17;;;;;;;;;15.00;11.80;;;;;25.91;59.59;98439.38;5072323;27;46496;-68
2023/06/13 10:39:55;;;;;;;;;4.00;4.00;;;;;26.04;59.00;98444.22;5092290;27;45462;-68
2023/06/13 10:42:43;;;;;;;;;3.40;3.40;;;;;26.16;57.49;98437.41;5093282;27;45514;-68
2023/06/13 10:45:21;;;;;;;;;3.60;3.60;;;;;26.30;57.08;98428.59;5074590;27;45709;-69
2023/06/13 10:47:47;;;;;;;;;4.40;4.40;;;;;26.36;55.60;98422.47;5074396;27;47357;-69
2023/06/13 10:50:16;;;;;;;;;4.75;4.75;;;;;26.32;55.83;98418.41;5092798;27;45415;-68
2023/06/13 10:52:49;;;;;;;;;5.20;5.20;;;;;26.33;55.84;98416.56;5093415;27;45468;-69
2023/06/13 10:55:25;;;;;;;;;5.20;4.80;;;;;26.44;56.02;98409.94;5093241;27;45417;-68
2023/06/13 10:58:02;;;;;;;;;3.80;3.20;;;;;26.57;54.51;98407.47;5072322;27;47163;-69
2023/06/13 11:00:27;;;;;;;;;4.80;4.80;;;;;26.72;54.02;98403.78;5093437;27;45475;-69
2023/06/13 11:03:13;;;;;;;;;3.00;3.00;;;;;26.85;53.58;98402.31;5093836;27;45407;-69
2023/06/13 11:05:44;;;;;;;;;4.60;3.00;;;;;26.95;53.19;98397.56;5071281;28;45605;-68
2023/06/13 11:08:19;;;;;;;;;3.40;2.60;;;;;27.06;53.24;98395.22;5092745;27;46411;-68
2023/06/13 11:10:46;;;;;;;;;3.80;2.60;;;;;27.06;52.18;98399.81;5093130;27;45406;-69
2023/06/13 11:13:19;;;;;;;;;3.80;2.20;;;;;27.04;50.80;98388.31;5093005;27;45457;-68
2023/06/13 11:15:44;;;;;;;;;8.40;8.40;;;;;26.99;50.82;98383.44;5092969;27;45510;-68
2023/06/13 11:18:09;;;;;;;;;3.00;3.00;;;;;26.93;51.05;98377.91;5092998;27;46465;-68
2023/06/13 11:20:55;;;;;;;;;3.00;3.00;;;;;26.89;50.65;98376.59;5092337;27;45631;-68
2023/06/13 11:23:23;;;;;;;;;2.60;2.00;;;;;26.86;50.05;98379.66;5074373;27;45492;-68
2023/06/13 11:25:52;;;;;;;;;2.80;2.80;;;;;26.79;50.58;98365.22;5092585;27;45400;-68
2023/06/13 11:28:21;;;;;;;;;2.60;1.80;;;;;26.83;50.73;98369.19;5092852;27;45563;-68
2023/06/13 11:30:49;;;;;;;;;4.20;3.00;;;;;26.88;50.17;98362.22;5093153;27;45433;-68
2023/06/13 11:33:16;;;;;;;;;2.60;2.60;;;;;26.86;50.33;98363.44;5092833;27;45337;-68
2023/06/13 11:35:49;;;;;;;;;4.60;4.60;;;;;26.90;50.20;98356.63;5092386;27;45649;-68